Time;durP1;ratioP1;P1;durP2;ratioP2;P2;SDS_P1;SDS_P2;PMS_P1;PMS_P2;Temp;Humidity;BMP_temperature;BMP_pressure;BME280_temperature;BME280_humidity;BME280_pressure;Samples;Min_cycle;Max_cycle;Signal;HPM_P1;HPM_P2
2022/04/06 00:00:09;;;;;;;6.93;1.45;;;10.70;81.20;;;;;;5109811;28;20455;-65
2022/04/06 00:02:39;;;;;;;6.82;1.15;;;10.70;81.40;;;;;;5110311;28;20373;-64
2022/04/06 00:05:09;;;;;;;12.32;2.42;;;10.70;81.60;;;;;;5110348;28;20030;-64
2022/04/06 00:07:35;;;;;;;11.82;1.27;;;10.70;81.30;;;;;;5113013;28;20035;-64
2022/04/06 00:10:01;;;;;;;10.73;1.63;;;10.70;81.60;;;;;;5113169;28;20212;-64
2022/04/06 00:12:27;;;;;;;6.05;1.80;;;10.60;81.40;;;;;;5112945;28;20020;-64
2022/04/06 00:14:53;;;;;;;7.75;1.73;;;10.60;81.40;;;;;;5113094;28;20072;-65
2022/04/06 00:17:18;;;;;;;9.25;1.33;;;10.60;80.70;;;;;;5112737;28;20026;-64
2022/04/06 00:19:44;;;;;;;5.07;0.90;;;10.70;80.70;;;;;;5112903;28;20486;-64
2022/04/06 00:22:09;;;;;;;6.65;1.55;;;10.60;80.60;;;;;;5110946;28;20142;-64
2022/04/06 00:24:35;;;;;;;6.78;1.33;;;10.60;79.80;;;;;;5109914;28;20030;-64
2022/04/06 00:27:01;;;;;;;5.68;0.90;;;10.60;79.40;;;;;;5109512;28;20096;-64
2022/04/06 00:29:26;;;;;;;4.68;1.35;;;10.60;79.30;;;;;;5111414;28;20026;-64
2022/04/06 00:31:53;;;;;;;4.68;0.90;;;10.70;78.30;;;;;;5112528;28;20431;-64
2022/04/06 00:34:18;;;;;;;6.30;1.65;;;10.70;77.90;;;;;;5112643;28;20023;-66
2022/04/06 00:36:45;;;;;;;5.43;0.90;;;10.70;77.40;;;;;;5112395;28;20034;-64
2022/04/06 00:39:12;;;;;;;6.22;1.13;;;10.60;77.70;;;;;;5112471;28;20023;-64
2022/04/06 00:41:39;;;;;;;6.35;1.25;;;10.70;77.30;;;;;;5112320;27;20561;-64
2022/04/06 00:44:11;;;;;;;9.35;1.33;;;10.70;77.10;;;;;;5112451;28;20036;-64
2022/04/06 00:46:36;;;;;;;4.38;1.00;;;10.70;77.00;;;;;;5112484;28;20020;-64
2022/04/06 00:49:03;;;;;;;4.72;1.17;;;10.70;76.90;;;;;;5112203;28;20435;-66
2022/04/06 00:51:28;;;;;;;12.63;2.95;;;10.60;77.20;;;;;;5111864;28;20564;-65
2022/04/06 00:53:54;;;;;;;5.88;1.23;;;10.60;77.70;;;;;;5112341;28;20122;-64
2022/04/06 00:56:20;;;;;;;6.30;0.93;;;10.70;78.10;;;;;;5112129;28;20068;-64
2022/04/06 00:58:47;;;;;;;8.82;1.35;;;10.60;78.80;;;;;;5112151;27;20031;-65
2022/04/06 01:01:13;;;;;;;7.93;1.55;;;10.60;79.80;;;;;;5111681;28;20055;-64
2022/04/06 01:03:40;;;;;;;10.07;1.75;;;10.60;80.60;;;;;;5109275;28;20623;-65
2022/04/06 01:06:07;;;;;;;17.92;2.60;;;10.60;80.80;;;;;;5108558;28;20057;-64
2022/04/06 01:08:33;;;;;;;5.18;1.25;;;10.60;80.60;;;;;;5111610;28;20398;-65
2022/04/06 01:11:00;;;;;;;6.20;1.10;;;10.60;80.90;;;;;;5111681;28;20024;-64
2022/04/06 01:13:27;;;;;;;7.80;1.40;;;10.60;81.10;;;;;;5094916;28;20414;-64
2022/04/06 01:15:53;;;;;;;11.75;2.47;;;10.60;81.00;;;;;;5091453;28;20474;-64
2022/04/06 01:18:18;;;;;;;4.45;1.23;;;10.60;81.30;;;;;;5091351;28;20020;-64
2022/04/06 01:20:44;;;;;;;19.17;2.40;;;10.60;81.50;;;;;;5091026;28;20028;-66
2022/04/06 01:23:10;;;;;;;6.53;1.42;;;10.50;81.80;;;;;;5091256;28;20113;-66
2022/04/06 01:25:38;;;;;;;6.70;1.35;;;10.50;81.90;;;;;;5091077;28;20053;-65
2022/04/06 01:28:04;;;;;;;7.43;1.38;;;10.50;82.40;;;;;;5091152;28;20491;-65
2022/04/06 01:30:30;;;;;;;9.85;2.08;;;10.50;83.00;;;;;;5104819;28;20023;-65
2022/04/06 01:32:57;;;;;;;12.98;1.92;;;10.50;83.80;;;;;;5111446;28;20039;-64
2022/04/06 01:35:23;;;;;;;8.45;2.65;;;10.50;85.00;;;;;;5111547;27;20096;-64
2022/04/06 01:37:49;;;;;;;12.32;1.85;;;10.50;86.00;;;;;;5111126;28;20043;-65
2022/04/06 01:40:15;;;;;;;13.77;1.98;;;10.50;86.50;;;;;;5111388;28;20021;-64
2022/04/06 01:42:41;;;;;;;8.60;1.50;;;10.50;87.30;;;;;;5111388;28;20035;-65
2022/04/06 01:45:08;;;;;;;9.48;1.80;;;10.50;88.10;;;;;;5111272;28;20031;-65
2022/04/06 01:47:34;;;;;;;14.90;2.67;;;10.50;88.80;;;;;;5110902;28;20015;-65
2022/04/06 01:52:44;;;;;;;8.18;1.77;;;10.40;90.00;;;;;;5087472;28;20383;-65
2022/04/06 01:55:13;;;;;;;13.80;2.22;;;10.40;90.10;;;;;;5087695;28;20483;-64
2022/04/06 01:57:40;;;;;;;11.05;1.58;;;10.40;90.20;;;;;;5098268;28;20436;-64
2022/04/06 02:00:15;;;;;;;11.73;2.10;;;10.40;90.20;;;;;;5108015;28;20126;-65
2022/04/06 02:02:43;;;;;;;10.32;2.55;;;10.30;90.40;;;;;;5107841;28;20036;-64
2022/04/06 02:05:09;;;;;;;11.90;1.88;;;10.30;90.50;;;;;;5109652;28;20494;-65
2022/04/06 02:07:35;;;;;;;18.20;3.17;;;10.30;90.40;;;;;;5110029;28;20034;-64
2022/04/06 02:10:02;;;;;;;10.90;1.90;;;10.40;90.50;;;;;;5110771;28;20073;-64
2022/04/06 02:12:29;;;;;;;15.52;2.50;;;10.30;90.60;;;;;;5110963;28;20770;-64
2022/04/06 02:14:55;;;;;;;13.35;2.03;;;10.40;90.60;;;;;;5110795;28;20473;-64
2022/04/06 02:17:21;;;;;;;16.65;2.45;;;10.40;90.70;;;;;;5110635;28;20418;-65
2022/04/06 02:19:47;;;;;;;16.13;2.35;;;10.30;91.00;;;;;;5110722;28;20074;-65
2022/04/06 02:22:13;;;;;;;11.18;2.00;;;10.30;90.90;;;;;;5110171;28;20134;-65
2022/04/06 02:24:39;;;;;;;10.35;2.58;;;10.30;91.10;;;;;;5108092;28;20035;-66
2022/04/06 02:27:08;;;;;;;13.57;2.00;;;10.30;91.10;;;;;;5107676;28;20023;-66
2022/04/06 02:29:35;;;;;;;16.73;2.50;;;10.30;91.20;;;;;;5107513;28;20110;-66
2022/04/06 02:32:01;;;;;;;13.65;2.45;;;10.40;90.90;;;;;;5107670;28;20058;-66
2022/04/06 02:34:26;;;;;;;10.77;1.85;;;10.40;90.90;;;;;;5109645;28;20382;-64
2022/04/06 02:36:52;;;;;;;12.00;2.70;;;10.40;90.90;;;;;;5110419;28;20070;-65
2022/04/06 02:39:17;;;;;;;10.18;1.67;;;10.50;90.90;;;;;;5110541;28;20076;-65
2022/04/06 02:41:43;;;;;;;13.82;2.65;;;10.40;90.90;;;;;;5110310;28;20130;-66
2022/04/06 02:44:09;;;;;;;11.45;2.00;;;10.40;90.90;;;;;;5110655;28;20020;-65
2022/04/06 02:46:34;;;;;;;7.95;2.13;;;10.40;90.90;;;;;;5110473;28;20027;-65
2022/04/06 02:49:00;;;;;;;13.50;2.60;;;10.40;91.00;;;;;;5110326;28;20027;-65
2022/04/06 02:51:26;;;;;;;11.23;1.67;;;10.40;90.70;;;;;;5110063;28;20032;-65
2022/04/06 02:53:51;;;;;;;11.57;2.53;;;10.40;90.40;;;;;;5110279;28;20026;-65
2022/04/06 02:56:17;;;;;;;17.13;2.67;;;10.40;90.50;;;;;;5110228;28;20031;-65
2022/04/06 02:58:43;;;;;;;16.63;2.63;;;10.40;90.60;;;;;;5110287;28;20031;-65
2022/04/06 03:01:08;;;;;;;15.30;2.80;;;10.40;90.40;;;;;;5110410;28;20050;-65
2022/04/06 03:03:34;;;;;;;13.05;2.65;;;10.40;90.60;;;;;;5110330;28;20047;-65
2022/04/06 03:06:01;;;;;;;13.05;2.20;;;10.40;90.50;;;;;;5105483;28;20047;-66
2022/04/06 03:08:27;;;;;;;11.27;2.58;;;10.40;90.40;;;;;;5089786;28;20043;-65
2022/04/06 03:10:52;;;;;;;11.48;2.83;;;10.30;90.50;;;;;;5089923;28;20115;-65
2022/04/06 03:13:19;;;;;;;13.55;2.58;;;10.40;90.40;;;;;;5089751;28;20051;-65
2022/04/06 03:15:44;;;;;;;13.70;2.60;;;10.40;90.30;;;;;;5090321;28;20682;-64
2022/04/06 03:18:11;;;;;;;12.68;2.30;;;10.40;90.20;;;;;;5089685;28;20032;-65
2022/04/06 03:20:36;;;;;;;10.55;2.22;;;10.40;90.30;;;;;;5091239;28;20078;-65
2022/04/06 03:23:03;;;;;;;12.80;3.60;;;10.50;90.50;;;;;;5093272;28;20060;-65
2022/04/06 03:25:28;;;;;;;13.45;2.30;;;10.40;90.70;;;;;;5093762;28;20020;-66
2022/04/06 03:27:54;;;;;;;10.30;2.47;;;10.40;90.80;;;;;;5093608;28;20153;-65
2022/04/06 03:30:20;;;;;;;15.32;2.33;;;10.50;90.90;;;;;;5105462;28;20106;-66
2022/04/06 03:32:45;;;;;;;17.73;2.88;;;10.40;91.00;;;;;;5113706;28;20474;-65
2022/04/06 03:35:11;;;;;;;8.13;1.95;;;10.40;91.00;;;;;;5113727;28;20038;-65
2022/04/06 03:37:37;;;;;;;14.32;2.75;;;10.40;91.10;;;;;;5113577;28;20020;-65
2022/04/06 03:40:05;;;;;;;16.83;2.60;;;10.50;91.20;;;;;;5113681;28;20035;-65
2022/04/06 03:42:32;;;;;;;12.68;2.55;;;10.50;91.20;;;;;;5113690;28;20135;-65
2022/04/06 03:44:58;;;;;;;10.25;2.28;;;10.50;91.30;;;;;;5113519;28;20030;-65
2022/04/06 03:47:32;;;;;;;11.27;2.20;;;10.50;91.30;;;;;;5113508;28;20028;-65
2022/04/06 03:49:59;;;;;;;15.98;2.63;;;10.50;91.30;;;;;;5113402;28;20031;-65
2022/04/06 03:52:25;;;;;;;12.57;2.78;;;10.50;91.40;;;;;;5113123;28;20022;-65
2022/04/06 03:54:52;;;;;;;15.27;2.53;;;10.50;91.50;;;;;;5112801;28;20478;-65
2022/04/06 03:57:17;;;;;;;22.30;4.13;;;10.50;91.60;;;;;;5113211;28;20059;-66
2022/04/06 03:59:43;;;;;;;15.93;3.17;;;10.50;91.80;;;;;;5113438;28;20059;-65
2022/04/06 04:02:09;;;;;;;11.05;3.63;;;10.50;91.80;;;;;;5113221;28;20385;-66
2022/04/06 04:04:35;;;;;;;17.23;3.70;;;10.50;92.00;;;;;;5113230;28;20031;-66
2022/04/06 04:07:01;;;;;;;12.98;2.95;;;10.50;92.20;;;;;;5112896;28;20012;-65
2022/04/06 04:09:28;;;;;;;17.58;4.15;;;10.50;92.60;;;;;;5113108;28;20034;-65
2022/04/06 04:11:56;;;;;;;16.27;3.35;;;10.50;93.20;;;;;;5113128;28;20032;-66
2022/04/06 04:14:22;;;;;;;17.17;3.58;;;10.40;93.70;;;;;;5112886;28;20024;-65
2022/04/06 04:16:48;;;;;;;17.48;3.45;;;10.30;93.90;;;;;;5110776;28;20024;-66
2022/04/06 04:19:15;;;;;;;16.45;4.07;;;10.20;94.40;;;;;;5109615;28;20035;-65
2022/04/06 04:21:42;;;;;;;18.20;3.40;;;10.20;94.00;;;;;;5111108;28;20027;-66
2022/04/06 04:24:08;;;;;;;11.32;2.58;;;10.10;94.40;;;;;;5112829;28;20138;-65
2022/04/06 04:26:36;;;;;;;14.27;2.72;;;10.10;94.10;;;;;;5113035;28;20024;-65
2022/04/06 04:29:05;;;;;;;15.48;2.83;;;10.10;94.30;;;;;;5112576;28;20039;-66
2022/04/06 04:31:31;;;;;;;16.02;2.70;;;10.10;94.00;;;;;;5110377;28;20474;-66
2022/04/06 04:33:57;;;;;;;17.30;3.13;;;10.20;94.00;;;;;;5109323;28;20039;-66
2022/04/06 04:36:23;;;;;;;18.52;3.15;;;10.20;94.20;;;;;;5109366;28;20439;-65
2022/04/06 04:38:49;;;;;;;16.20;2.97;;;10.20;94.60;;;;;;5112481;28;20557;-66
2022/04/06 04:41:14;;;;;;;14.43;3.00;;;10.20;94.50;;;;;;5112434;28;20121;-65
2022/04/06 04:43:40;;;;;;;19.25;3.75;;;10.20;94.40;;;;;;5112473;28;20076;-66
2022/04/06 04:46:07;;;;;;;13.38;4.00;;;10.20;94.50;;;;;;5112470;28;20061;-66
2022/04/06 04:48:33;;;;;;;18.20;3.08;;;10.20;94.90;;;;;;5112616;27;20023;-66
2022/04/06 04:50:59;;;;;;;19.40;3.55;;;10.20;94.90;;;;;;5111900;28;20031;-66
2022/04/06 04:53:25;;;;;;;23.10;3.30;;;10.20;95.00;;;;;;5112162;28;20122;-66
2022/04/06 04:55:51;;;;;;;14.27;3.05;;;10.10;95.30;;;;;;5112179;28;20104;-66
2022/04/06 04:58:17;;;;;;;18.27;2.90;;;10.20;95.20;;;;;;5112131;28;20053;-66
2022/04/06 05:00:42;;;;;;;14.30;3.10;;;10.20;95.40;;;;;;5111169;28;20035;-66
2022/04/06 05:03:08;;;;;;;22.92;3.60;;;10.10;95.40;;;;;;5109068;28;20454;-66
2022/04/06 05:05:35;;;;;;;20.58;3.28;;;10.10;95.60;;;;;;5108862;28;20032;-66
2022/04/06 05:08:01;;;;;;;24.33;3.45;;;10.10;95.70;;;;;;5110678;28;20031;-65
2022/04/06 05:10:27;;;;;;;17.80;4.22;;;10.20;95.30;;;;;;5111836;28;20069;-62
2022/04/06 05:12:54;;;;;;;15.55;3.65;;;10.20;95.10;;;;;;5111732;28;20053;-63
2022/04/06 05:15:20;;;;;;;18.23;2.95;;;10.20;94.80;;;;;;5102445;27;20024;-64
2022/04/06 05:17:46;;;;;;;16.55;3.25;;;10.20;94.80;;;;;;5091589;28;20028;-64
2022/04/06 05:20:13;;;;;;;15.70;3.13;;;10.20;95.10;;;;;;5090104;28;20437;-63
2022/04/06 05:22:39;;;;;;;21.65;3.40;;;10.20;95.20;;;;;;5088530;28;20693;-62
2022/04/06 05:25:07;;;;;;;22.98;3.63;;;10.20;95.40;;;;;;5107034;28;20023;-61
2022/04/06 05:27:43;;;;;;;20.60;3.65;;;10.10;95.40;;;;;;5110617;28;20023;-60
2022/04/06 05:30:10;;;;;;;21.08;4.05;;;10.10;95.90;;;;;;5111250;28;20102;-61
2022/04/06 05:32:36;;;;;;;13.23;3.03;;;10.10;96.10;;;;;;5108508;28;20034;-61
2022/04/06 05:35:02;;;;;;;16.88;3.47;;;10.00;96.60;;;;;;5108075;28;20028;-61
2022/04/06 05:37:27;;;;;;;20.05;4.05;;;10.00;97.00;;;;;;5110175;28;20028;-61
2022/04/06 05:39:53;;;;;;;14.27;3.53;;;9.90;96.80;;;;;;5111286;28;20332;-61
2022/04/06 05:42:19;;;;;;;17.70;3.15;;;9.90;97.00;;;;;;5095853;28;20075;-61
2022/04/06 05:44:44;;;;;;;15.35;3.13;;;10.00;97.00;;;;;;5090214;28;20016;-62
2022/04/06 05:47:10;;;;;;;17.00;4.00;;;10.00;96.80;;;;;;5088343;28;20506;-62
2022/04/06 05:49:35;;;;;;;22.73;3.67;;;10.00;96.50;;;;;;5087498;28;20016;-62
2022/04/06 05:52:01;;;;;;;16.55;3.13;;;10.00;96.30;;;;;;5088782;28;20386;-62
2022/04/06 05:54:27;;;;;;;17.30;2.83;;;10.00;96.10;;;;;;5090554;28;20101;-61
2022/04/06 05:56:52;;;;;;;19.83;3.40;;;10.10;96.10;;;;;;5090441;28;20031;-61
2022/04/06 05:59:18;;;;;;;20.88;3.38;;;10.10;95.90;;;;;;5093913;28;20023;-64
2022/04/06 06:01:43;;;;;;;27.65;4.18;;;10.10;95.90;;;;;;5110456;28;20106;-64
2022/04/06 06:04:09;;;;;;;29.40;4.25;;;10.10;95.50;;;;;;5109900;28;20028;-65
2022/04/06 06:06:35;;;;;;;12.40;2.65;;;10.10;95.30;;;;;;5110510;28;20383;-65
2022/04/06 06:09:01;;;;;;;16.75;3.13;;;10.20;95.30;;;;;;5110879;28;20497;-64
2022/04/06 06:11:27;;;;;;;21.88;3.53;;;10.20;95.50;;;;;;5110779;28;20024;-64
2022/04/06 06:13:52;;;;;;;22.15;3.03;;;10.20;95.20;;;;;;5106035;28;20153;-65
2022/04/06 06:16:18;;;;;;;12.15;2.70;;;10.20;95.40;;;;;;5109760;28;20016;-64
2022/04/06 06:18:43;;;;;;;21.15;3.50;;;10.20;95.30;;;;;;5110421;28;20020;-64
2022/04/06 06:21:09;;;;;;;16.70;3.38;;;10.20;95.20;;;;;;5104058;28;20437;-64
2022/04/06 06:23:35;;;;;;;16.30;3.03;;;10.20;95.30;;;;;;5107771;28;20080;-65
2022/04/06 06:26:01;;;;;;;16.98;4.57;;;10.20;95.50;;;;;;5102995;28;20023;-66
2022/04/06 06:28:27;;;;;;;12.25;2.38;;;10.20;95.50;;;;;;5106577;28;20034;-64
2022/04/06 06:30:53;;;;;;;16.90;3.30;;;10.20;95.80;;;;;;5109348;28;20031;-63
2022/04/06 06:33:18;;;;;;;13.30;3.42;;;10.20;95.70;;;;;;5106298;28;20022;-62
2022/04/06 06:35:45;;;;;;;26.80;5.18;;;10.20;95.70;;;;;;5107272;28;20081;-65
2022/04/06 06:38:11;;;;;;;20.52;3.55;;;10.20;95.70;;;;;;5110097;28;20441;-63
2022/04/06 06:40:37;;;;;;;29.83;4.13;;;10.20;95.60;;;;;;5110358;28;20111;-63
2022/04/06 06:43:03;;;;;;;16.63;3.65;;;10.20;95.90;;;;;;5109947;28;20035;-64
2022/04/06 06:45:28;;;;;;;19.15;3.65;;;10.20;95.60;;;;;;5110248;28;20103;-63
2022/04/06 06:47:54;;;;;;;12.18;3.03;;;10.30;95.70;;;;;;5110237;28;20019;-63
2022/04/06 06:50:20;;;;;;;20.60;3.55;;;10.30;95.40;;;;;;5110167;28;20490;-62
2022/04/06 06:52:46;;;;;;;19.52;3.20;;;10.30;95.60;;;;;;5110145;28;20036;-64
2022/04/06 06:55:12;;;;;;;16.85;3.75;;;10.30;95.40;;;;;;5112631;28;20016;-63
2022/04/06 06:57:38;;;;;;;12.27;2.95;;;10.40;95.20;;;;;;5114633;28;20106;-63
2022/04/06 07:00:04;;;;;;;19.95;3.47;;;10.40;95.50;;;;;;5114325;28;20033;-64
2022/04/06 07:02:30;;;;;;;17.92;3.28;;;10.40;96.20;;;;;;5114158;28;20540;-64
2022/04/06 07:04:55;;;;;;;20.30;3.70;;;10.30;96.40;;;;;;5111033;28;20031;-64
2022/04/06 07:07:21;;;;;;;13.13;2.65;;;10.20;96.70;;;;;;5110574;28;20659;-64
2022/04/06 07:09:46;;;;;;;15.63;2.88;;;10.20;96.90;;;;;;5113675;28;20027;-64
2022/04/06 07:12:13;;;;;;;20.60;3.60;;;10.20;96.90;;;;;;5114082;28;20062;-63
2022/04/06 07:14:39;;;;;;;21.70;4.07;;;10.20;97.10;;;;;;5110906;28;20104;-62
2022/04/06 07:17:04;;;;;;;19.92;3.40;;;10.20;97.30;;;;;;5114307;28;20065;-65
2022/04/06 07:19:30;;;;;;;18.73;3.25;;;10.30;97.30;;;;;;5114111;28;20099;-63
2022/04/06 07:21:56;;;;;;;11.05;2.58;;;10.30;97.00;;;;;;5113360;28;20039;-63
2022/04/06 07:24:22;;;;;;;14.55;3.25;;;10.40;96.90;;;;;;5113880;28;20028;-63
2022/04/06 07:26:47;;;;;;;18.25;3.55;;;10.50;96.30;;;;;;5113853;28;20024;-63
2022/04/06 07:29:15;;;;;;;19.48;3.95;;;10.60;96.20;;;;;;5113774;28;20043;-63
2022/04/06 07:31:42;;;;;;;26.50;4.18;;;10.60;95.70;;;;;;5112444;28;20034;-63
2022/04/06 07:34:08;;;;;;;16.63;3.30;;;10.70;95.70;;;;;;5110818;28;20321;-65
2022/04/06 07:36:34;;;;;;;13.32;2.58;;;11.00;95.40;;;;;;5111075;28;20444;-63
2022/04/06 07:39:04;;;;;;;12.38;3.30;;;11.00;95.10;;;;;;5113712;28;20039;-63
2022/04/06 07:41:30;;;;;;;13.40;2.80;;;11.10;95.00;;;;;;5113742;28;20030;-64
2022/04/06 07:43:56;;;;;;;20.63;2.83;;;11.00;94.90;;;;;;5113489;28;20027;-63
2022/04/06 07:46:22;;;;;;;12.52;2.28;;;10.90;94.90;;;;;;5113662;28;20028;-63
2022/04/06 07:48:48;;;;;;;13.18;2.38;;;10.90;95.10;;;;;;5113210;28;20359;-63
2022/04/06 07:51:14;;;;;;;12.75;2.60;;;11.00;95.20;;;;;;5113290;28;20062;-63
2022/04/06 07:53:40;;;;;;;13.73;3.70;;;10.90;94.80;;;;;;5111626;28;20131;-63
2022/04/06 07:56:08;;;;;;;16.85;3.05;;;10.80;95.10;;;;;;5110025;28;20059;-64
2022/04/06 07:58:35;;;;;;;10.73;2.60;;;10.70;95.30;;;;;;5110355;28;20035;-65
2022/04/06 08:01:02;;;;;;;12.38;2.85;;;10.70;95.30;;;;;;5109853;28;20027;-64
2022/04/06 08:03:29;;;;;;;8.70;1.88;;;10.80;95.40;;;;;;5108884;28;20092;-63
2022/04/06 08:05:56;;;;;;;12.18;2.83;;;10.80;95.50;;;;;;5106256;28;20016;-63
2022/04/06 08:08:21;;;;;;;9.43;2.28;;;10.70;95.40;;;;;;5102526;28;20032;-63
2022/04/06 08:10:47;;;;;;;10.43;2.25;;;10.60;95.80;;;;;;5097920;28;20039;-64
2022/04/06 08:13:13;;;;;;;14.45;2.60;;;10.60;95.70;;;;;;5092494;28;20028;-64
2022/04/06 08:15:38;;;;;;;14.50;3.08;;;10.70;95.90;;;;;;5092898;28;20074;-65
2022/04/06 08:18:06;;;;;;;14.32;2.90;;;10.70;95.80;;;;;;5092414;28;20028;-65
2022/04/06 08:20:32;;;;;;;20.95;3.45;;;10.90;95.60;;;;;;5092715;28;20027;-65
2022/04/06 08:22:58;;;;;;;12.90;2.65;;;10.90;95.70;;;;;;5091706;28;20052;-65
2022/04/06 08:25:23;;;;;;;18.40;3.20;;;10.80;95.70;;;;;;5092300;28;20398;-65
2022/04/06 08:27:49;;;;;;;14.23;3.22;;;10.70;96.10;;;;;;5092421;28;20016;-65
2022/04/06 08:30:16;;;;;;;13.50;3.25;;;10.80;96.10;;;;;;5103687;28;20023;-64
2022/04/06 08:32:42;;;;;;;16.40;3.30;;;10.80;96.00;;;;;;5112638;28;20031;-62
2022/04/06 08:35:09;;;;;;;17.60;3.95;;;10.80;96.60;;;;;;5112898;28;20043;-63
2022/04/06 08:37:36;;;;;;;18.85;3.00;;;10.70;96.40;;;;;;5112155;28;20394;-64
2022/04/06 08:40:02;;;;;;;20.65;3.13;;;10.80;96.80;;;;;;5112504;28;20435;-64
2022/04/06 08:42:32;;;;;;;15.75;2.78;;;10.70;96.50;;;;;;5112467;28;20522;-64
2022/04/06 08:45:00;;;;;;;15.47;3.47;;;10.70;96.50;;;;;;5109708;28;20055;-65
2022/04/06 08:47:31;;;;;;;14.95;2.50;;;10.60;96.70;;;;;;5109582;27;20043;-65
2022/04/06 08:49:57;;;;;;;;;;;10.60;97.00;;;;;;5101922;28;20483;-65
2022/04/06 08:52:23;;;;;;;12.38;2.25;;;10.50;97.30;;;;;;5088822;28;19973;-65
2022/04/06 08:54:49;;;;;;;15.02;2.90;;;10.50;97.40;;;;;;5108813;28;20389;-63
2022/04/06 08:57:17;;;;;;;11.63;2.95;;;10.60;97.20;;;;;;5092031;28;20028;-63
2022/04/06 08:59:43;;;;;;;19.08;3.15;;;10.70;97.40;;;;;;5092273;28;20536;-62
2022/04/06 09:02:10;;;;;;;26.02;3.53;;;10.70;97.10;;;;;;5091538;28;20035;-63
2022/04/06 09:04:39;;;;;;;15.45;3.13;;;10.60;97.40;;;;;;5091747;28;20035;-62
2022/04/06 09:07:09;;;;;;;17.63;3.20;;;10.60;97.70;;;;;;5091631;28;20020;-63
2022/04/06 09:09:35;;;;;;;20.67;3.40;;;10.70;98.00;;;;;;5091625;28;20034;-63
2022/04/06 09:12:08;;;;;;;17.10;3.90;;;10.70;97.50;;;;;;5097248;28;20063;-64
2022/04/06 09:14:35;;;;;;;25.23;4.50;;;10.80;97.50;;;;;;5108632;28;20024;-64
2022/04/06 09:17:05;;;;;;;17.02;3.95;;;11.00;96.80;;;;;;5110227;28;20031;-63
2022/04/06 09:19:35;;;;;;;18.63;3.15;;;11.40;96.50;;;;;;5109807;28;20023;-64
2022/04/06 09:22:00;;;;;;;13.73;2.72;;;11.40;95.20;;;;;;5096697;28;20016;-63
2022/04/06 09:24:26;;;;;;;16.80;3.42;;;11.70;94.90;;;;;;5088311;28;20081;-64
2022/04/06 09:27:03;;;;;;;15.40;2.97;;;11.70;94.60;;;;;;5088173;28;20019;-64
2022/04/06 09:29:29;;;;;;;15.18;2.35;;;11.90;94.40;;;;;;5092799;28;20539;-64
2022/04/06 09:31:55;;;;;;;9.40;2.28;;;11.90;94.20;;;;;;5108329;28;20026;-64
2022/04/06 09:34:22;;;;;;;14.07;2.60;;;11.80;93.90;;;;;;5108134;28;20042;-63
2022/04/06 09:36:56;;;;;;;18.20;3.00;;;11.60;94.40;;;;;;5111062;28;20102;-63
2022/04/06 09:39:44;;;;;;;12.23;3.03;;;11.70;94.40;;;;;;5108946;28;20072;-64
2022/04/06 09:42:22;;;;;;;13.55;2.70;;;11.50;95.20;;;;;;5108029;28;20071;-63
2022/04/06 09:47:40;;;;;;;13.43;2.57;;;11.50;95.80;;;;;;5111393;28;20382;-66
2022/04/06 09:50:26;;;;;;;11.07;3.03;;;11.50;96.30;;;;;;5111218;28;20435;-66
2022/04/06 09:52:54;;;;;;;11.82;3.60;;;11.20;96.40;;;;;;5110810;28;20478;-66
2022/04/06 09:55:22;;;;;;;15.57;2.63;;;11.10;97.00;;;;;;5111038;28;20023;-66
2022/04/06 09:57:56;;;;;;;15.10;2.88;;;11.00;97.50;;;;;;5109211;28;20024;-65
2022/04/06 10:00:24;;;;;;;16.58;2.70;;;10.90;97.70;;;;;;5107784;28;20024;-64
2022/04/06 10:03:10;;;;;;;9.13;1.95;;;10.90;97.60;;;;;;5107620;28;20409;-64
2022/04/06 10:05:38;;;;;;;13.40;1.85;;;10.90;98.20;;;;;;5108101;28;20123;-64
2022/04/06 10:08:09;;;;;;;7.53;1.30;;;10.80;98.40;;;;;;5110485;28;20431;-64
2022/04/06 10:10:40;;;;;;;11.15;1.70;;;10.80;98.60;;;;;;5110553;28;20405;-64
2022/04/06 10:13:07;;;;;;;;;;;10.70;98.50;;;;;;5110200;28;20031;-64
2022/04/06 10:15:35;;;;;;;7.43;1.67;;;10.70;99.20;;;;;;5107659;28;19929;-65
2022/04/06 10:18:03;;;;;;;10.23;2.10;;;10.70;99.40;;;;;;5107515;28;20413;-65
2022/04/06 10:20:42;;;;;;;8.70;1.23;;;10.70;99.50;;;;;;5107433;28;20456;-65
2022/04/06 10:23:08;;;;;;;8.63;1.20;;;10.60;99.60;;;;;;5106969;28;20047;-65
2022/04/06 10:25:59;;;;;;;13.85;1.73;;;10.60;99.90;;;;;;5102881;28;20019;-65
2022/04/06 10:28:24;;;;;;;9.98;1.90;;;10.60;99.90;;;;;;5087343;28;20032;-67
2022/04/06 10:31:12;;;;;;;6.43;1.75;;;10.70;99.90;;;;;;5102926;28;20378;-66
2022/04/06 10:33:39;;;;;;;8.75;2.05;;;10.50;99.90;;;;;;5107243;28;20107;-67
2022/04/06 10:36:29;;;;;;;6.03;1.40;;;10.40;99.90;;;;;;5107530;28;20031;-68
2022/04/06 10:39:07;;;;;;;7.45;1.60;;;10.40;99.90;;;;;;5107350;28;20474;-67
2022/04/06 10:41:34;;;;;;;5.68;1.27;;;10.50;99.90;;;;;;5107325;28;20093;-68
2022/04/06 10:44:00;;;;;;;5.75;1.63;;;10.50;99.90;;;;;;5106969;28;20126;-67
2022/04/06 10:46:40;;;;;;;12.82;2.97;;;10.50;99.90;;;;;;5107383;28;20102;-66
2022/04/06 10:49:15;;;;;;;3.47;0.47;;;10.60;99.90;;;;;;5106978;28;20103;-66
2022/04/06 10:51:49;;;;;;;3.70;0.75;;;10.60;99.90;;;;;;5107045;28;20039;-66
2022/04/06 10:54:15;;;;;;;1.48;0.40;;;10.80;99.90;;;;;;5107127;28;20034;-66
2022/04/06 10:56:49;;;;;;;4.05;0.43;;;10.90;99.90;;;;;;5107448;28;20031;-66
2022/04/06 10:59:16;;;;;;;3.45;0.52;;;10.90;99.90;;;;;;5107604;28;20028;-65
2022/04/06 11:01:45;;;;;;;2.55;0.40;;;11.10;99.90;;;;;;5107396;28;20124;-65
2022/04/06 11:04:21;;;;;;;1.67;0.60;;;11.10;99.90;;;;;;5106968;28;20032;-65
2022/04/06 11:07:00;;;;;;;2.58;0.70;;;11.10;99.90;;;;;;5106903;28;20510;-65
2022/04/06 11:12:28;;;;;;;3.88;0.43;;;10.90;99.90;;;;;;5106947;28;20096;-68
2022/04/06 11:15:00;;;;;;;4.88;0.38;;;11.00;99.90;;;;;;5103849;28;20020;-68
2022/04/06 11:17:32;;;;;;;4.43;0.50;;;11.00;99.90;;;;;;5106948;28;20458;-67
2022/04/06 11:20:03;;;;;;;3.78;0.50;;;11.00;99.90;;;;;;5106857;28;20028;-65
2022/04/06 11:22:29;;;;;;;2.97;0.98;;;11.00;99.90;;;;;;5106156;28;20090;-67
2022/04/06 11:24:55;;;;;;;3.10;0.88;;;11.10;99.90;;;;;;5106861;28;20046;-67
2022/04/06 11:27:33;;;;;;;2.97;0.50;;;10.90;99.90;;;;;;5106909;28;20386;-67
2022/04/06 11:30:12;;;;;;;3.88;0.40;;;10.80;99.90;;;;;;5106663;28;20378;-67
2022/04/06 11:32:59;;;;;;;2.85;0.60;;;10.80;99.90;;;;;;5106805;28;20066;-67
2022/04/06 11:35:44;;;;;;;2.25;0.47;;;10.70;99.90;;;;;;5106098;28;20061;-67
2022/04/06 11:38:09;;;;;;;7.72;0.95;;;10.60;99.90;;;;;;5106865;28;20103;-66
2022/04/06 11:40:42;;;;;;;7.50;1.13;;;10.60;99.90;;;;;;5106919;28;20636;-68
2022/04/06 11:43:08;;;;;;;5.78;1.63;;;10.60;99.90;;;;;;5110249;28;20118;-69
2022/04/06 11:45:44;;;;;;;9.38;1.70;;;10.70;99.90;;;;;;5110556;28;20127;-69
2022/04/06 11:48:15;;;;;;;9.85;2.05;;;10.70;99.90;;;;;;5110357;28;20118;-70
2022/04/06 11:50:42;;;;;;;11.05;2.63;;;10.70;99.90;;;;;;5110120;28;20114;-70
2022/04/06 11:53:15;;;;;;;17.40;2.63;;;10.70;99.90;;;;;;5110151;28;20055;-71
2022/04/06 11:55:53;;;;;;;8.07;2.03;;;10.80;99.90;;;;;;5110427;28;20527;-71
2022/04/06 11:58:36;;;;;;;10.32;1.60;;;10.80;99.90;;;;;;5110230;28;20062;-72
2022/04/06 12:01:05;;;;;;;16.65;2.75;;;10.70;99.90;;;;;;5109251;27;20063;-70
2022/04/06 12:03:32;;;;;;;8.60;1.75;;;10.80;99.90;;;;;;5110210;28;20130;-72
2022/04/06 12:05:58;;;;;;;9.05;1.90;;;10.70;99.90;;;;;;5110017;28;20027;-72
2022/04/06 12:08:24;;;;;;;14.95;2.10;;;10.60;99.90;;;;;;5109812;28;20024;-72
2022/04/06 12:10:56;;;;;;;12.43;1.95;;;10.60;99.90;;;;;;5110119;28;20020;-72
2022/04/06 12:13:23;;;;;;;6.55;1.65;;;10.60;99.90;;;;;;5110045;28;20031;-71
2022/04/06 12:15:50;;;;;;;11.90;2.22;;;10.60;99.90;;;;;;5109951;28;20371;-71
2022/04/06 12:18:19;;;;;;;7.80;1.77;;;10.70;99.90;;;;;;5109876;28;20114;-72
2022/04/06 12:20:46;;;;;;;10.52;1.40;;;10.70;99.90;;;;;;5109673;28;20024;-71
2022/04/06 12:23:13;;;;;;;9.70;1.50;;;10.70;99.90;;;;;;5109141;28;20198;-68
2022/04/06 12:25:38;;;;;;;10.00;2.28;;;10.70;99.90;;;;;;5109591;28;20016;-69
2022/04/06 12:28:13;;;;;;;8.00;2.22;;;10.70;99.90;;;;;;5109147;28;20038;-67
2022/04/06 12:30:58;;;;;;;12.70;2.28;;;10.60;99.90;;;;;;5109245;28;20782;-68
2022/04/06 12:33:44;;;;;;;12.77;2.78;;;10.60;99.90;;;;;;5109330;28;20092;-68
2022/04/06 12:36:27;;;;;;;9.57;3.10;;;10.60;99.90;;;;;;5108908;28;20042;-68
2022/04/06 12:39:15;;;;;;;9.70;2.40;;;10.60;99.90;;;;;;5109041;28;20028;-67
2022/04/06 12:42:02;;;;;;;16.48;2.20;;;10.70;99.90;;;;;;5109584;28;20028;-68
2022/04/06 12:44:29;;;;;;;11.90;2.63;;;10.60;99.90;;;;;;5109420;28;20027;-67
2022/04/06 12:46:55;;;;;;;13.13;2.40;;;10.50;99.90;;;;;;5108986;28;20153;-67
2022/04/06 12:49:30;;;;;;;9.23;2.45;;;10.60;99.90;;;;;;5109289;28;20058;-67
2022/04/06 12:52:37;;;;;;;18.05;2.72;;;10.60;99.90;;;;;;5108402;27;20016;-68